createdAt,value
2018-08-22T00:01:09.892Z,5.03
2018-08-22T00:03:37.603Z,4.93
2018-08-22T00:06:05.319Z,4.80
2018-08-22T00:08:38.734Z,5.33
2018-08-22T00:11:06.428Z,5.00
2018-08-22T00:13:34.145Z,5.67
2018-08-22T00:16:01.838Z,4.73
2018-08-22T00:18:29.548Z,5.17
2018-08-22T00:20:57.251Z,5.40
2018-08-22T00:23:24.952Z,5.03
2018-08-22T00:25:52.636Z,4.47
2018-08-22T00:28:20.359Z,5.37
2018-08-22T00:30:48.060Z,5.40
2018-08-22T00:33:15.806Z,4.67
2018-08-22T00:35:43.579Z,5.47
2018-08-22T00:38:11.282Z,4.97
2018-08-22T00:40:39.014Z,4.30
2018-08-22T00:43:06.736Z,4.87
2018-08-22T00:45:34.444Z,4.70
2018-08-22T00:48:02.165Z,4.13
2018-08-22T00:50:29.883Z,4.80
2018-08-22T00:52:57.583Z,4.83
2018-08-22T00:55:25.306Z,4.60
2018-08-22T00:57:53.029Z,4.63
2018-08-22T01:00:20.737Z,4.27
2018-08-22T01:02:48.447Z,4.33
2018-08-22T01:05:16.262Z,5.03
2018-08-22T01:07:43.947Z,5.23
2018-08-22T01:10:11.654Z,4.30
2018-08-22T01:12:39.324Z,4.60
2018-08-22T01:15:07.063Z,4.40
2018-08-22T01:17:34.823Z,5.30
2018-08-22T01:20:02.626Z,4.53
2018-08-22T01:22:30.351Z,4.20
2018-08-22T01:24:58.053Z,4.77
2018-08-22T01:27:25.759Z,4.77
2018-08-22T01:29:54.219Z,4.50
2018-08-22T01:32:22.414Z,4.37
2018-08-22T01:34:50.971Z,5.50
2018-08-22T01:37:18.692Z,4.40
2018-08-22T01:39:47.175Z,4.27
2018-08-22T01:42:14.999Z,4.70
2018-08-22T01:44:43.046Z,4.07
2018-08-22T01:47:10.719Z,4.80
2018-08-22T01:49:38.382Z,4.63
2018-08-22T01:52:06.066Z,4.80
2018-08-22T01:54:34.812Z,4.60
2018-08-22T01:57:02.850Z,4.43
2018-08-22T01:59:30.519Z,4.33
2018-08-22T02:01:58.199Z,4.90
2018-08-22T02:04:25.876Z,4.30
2018-08-22T02:06:53.596Z,3.90
2018-08-22T02:09:21.306Z,4.37
2018-08-22T02:11:49.035Z,4.03
2018-08-22T02:14:16.721Z,4.20
2018-08-22T02:16:44.408Z,4.10
2018-08-22T02:19:12.127Z,3.63
2018-08-22T02:21:39.810Z,3.60
2018-08-22T02:24:07.506Z,4.40
2018-08-22T02:26:35.202Z,3.90
2018-08-22T02:29:02.904Z,3.13
2018-08-22T02:31:30.919Z,3.20
2018-08-22T02:33:58.614Z,4.10
2018-08-22T02:36:26.367Z,3.70
2018-08-22T02:38:54.035Z,4.43
2018-08-22T02:41:21.750Z,3.67
2018-08-22T02:43:49.455Z,3.27
2018-08-22T02:46:17.176Z,2.77
2018-08-22T02:48:50.447Z,3.10
2018-08-22T02:51:18.147Z,3.50
2018-08-22T02:53:45.839Z,3.47
2018-08-22T02:56:13.528Z,2.77
2018-08-22T02:58:41.223Z,2.80
2018-08-22T03:01:08.916Z,3.00
2018-08-22T03:03:36.857Z,2.80
2018-08-22T03:06:04.573Z,3.13
2018-08-22T03:08:32.611Z,2.70
2018-08-22T03:11:00.310Z,2.77
2018-08-22T03:13:28.061Z,3.43
2018-08-22T03:15:55.863Z,2.83
2018-08-22T03:18:23.847Z,3.10
2018-08-22T03:20:51.559Z,3.17
2018-08-22T03:23:19.275Z,2.60
2018-08-22T03:25:47.258Z,3.10
2018-08-22T03:28:14.981Z,2.70
2018-08-22T03:30:42.657Z,2.87
2018-08-22T03:33:10.379Z,3.33
2018-08-22T03:35:38.074Z,2.80
2018-08-22T03:38:05.833Z,3.80
2018-08-22T03:40:33.527Z,3.20
2018-08-22T03:43:01.252Z,2.77
2018-08-22T03:45:28.936Z,4.20
2018-08-22T03:47:56.631Z,3.20
2018-08-22T03:50:24.349Z,3.27
2018-08-22T03:52:52.044Z,3.47
2018-08-22T03:55:19.777Z,3.00
2018-08-22T03:57:47.459Z,4.10
2018-08-22T04:00:15.219Z,2.60
2018-08-22T04:02:42.923Z,3.07
2018-08-22T04:05:10.637Z,3.10
2018-08-22T04:07:38.372Z,3.80
2018-08-22T04:10:06.166Z,3.40
2018-08-22T04:12:33.878Z,3.63
2018-08-22T04:15:01.587Z,3.87
2018-08-22T04:17:36.427Z,4.00
2018-08-22T04:20:04.427Z,3.23
2018-08-22T04:22:32.165Z,3.10
2018-08-22T04:24:59.859Z,3.57
2018-08-22T04:27:27.543Z,3.90
2018-08-22T04:29:55.275Z,3.00
2018-08-22T04:32:22.982Z,3.40
2018-08-22T04:34:50.720Z,3.27
2018-08-22T04:37:18.449Z,3.70
2018-08-22T04:39:46.183Z,3.53
2018-08-22T04:42:13.919Z,3.43
2018-08-22T04:44:41.736Z,3.10
2018-08-22T04:47:09.634Z,3.30
2018-08-22T04:49:37.342Z,3.37
2018-08-22T04:52:05.098Z,3.40
2018-08-22T04:54:32.800Z,3.47
2018-08-22T04:57:00.794Z,3.80
2018-08-22T04:59:28.504Z,3.67
2018-08-22T05:01:56.218Z,3.70
2018-08-22T05:04:23.958Z,3.47
2018-08-22T05:06:51.680Z,3.50
2018-08-22T05:09:19.385Z,4.10
2018-08-22T05:11:47.171Z,3.40
2018-08-22T05:14:14.870Z,3.67
2018-08-22T05:16:42.604Z,3.70
2018-08-22T05:19:10.291Z,3.13
2018-08-22T05:21:38.039Z,3.60
2018-08-22T05:24:05.749Z,4.10
2018-08-22T05:26:33.452Z,3.37
2018-08-22T05:29:01.187Z,3.43
2018-08-22T05:31:28.874Z,4.17
2018-08-22T05:33:56.620Z,4.40
2018-08-22T05:36:24.319Z,3.17
2018-08-22T05:38:52.102Z,3.33
2018-08-22T05:41:19.816Z,4.90
2018-08-22T05:43:47.546Z,5.07
2018-08-22T05:46:15.281Z,5.87
2018-08-22T05:48:42.976Z,4.73
2018-08-22T05:51:10.746Z,4.73
2018-08-22T05:53:38.454Z,3.70
2018-08-22T05:56:06.188Z,3.80
2018-08-22T05:58:33.890Z,3.83
2018-08-22T06:01:01.607Z,3.80
2018-08-22T06:03:29.356Z,3.13
2018-08-22T06:05:57.051Z,4.47
2018-08-22T06:08:24.778Z,4.67
2018-08-22T06:10:52.542Z,4.17
2018-08-22T06:13:20.275Z,4.10
2018-08-22T06:15:48.007Z,4.07
2018-08-22T06:18:15.683Z,4.23
2018-08-22T06:20:43.418Z,3.87
2018-08-22T06:23:11.116Z,4.43
2018-08-22T06:25:38.931Z,4.33
2018-08-22T06:28:06.590Z,4.20
2018-08-22T06:30:34.317Z,4.43
2018-08-22T06:33:02.080Z,4.00
2018-08-22T06:35:29.768Z,4.13
2018-08-22T06:37:57.520Z,4.80
2018-08-22T06:40:25.214Z,3.30
2018-08-22T06:42:52.936Z,4.20
2018-08-22T06:45:20.662Z,4.60
2018-08-22T06:47:48.428Z,4.40
2018-08-22T06:50:16.174Z,4.00
2018-08-22T06:52:43.860Z,4.10
2018-08-22T06:55:11.647Z,3.40
2018-08-22T06:57:39.355Z,5.67
2018-08-22T07:00:07.111Z,4.33
2018-08-22T07:02:34.818Z,5.90
2018-08-22T07:05:02.583Z,4.50
2018-08-22T07:07:30.323Z,5.47
2018-08-22T07:09:58.023Z,4.20
2018-08-22T07:12:25.751Z,5.00
2018-08-22T07:14:53.484Z,4.60
2018-08-22T07:17:21.189Z,4.13
2018-08-22T07:19:48.871Z,4.70
2018-08-22T07:22:16.656Z,4.60
2018-08-22T07:24:44.363Z,4.57
2018-08-22T07:27:12.115Z,5.33
2018-08-22T07:29:39.847Z,4.73
2018-08-22T07:32:07.575Z,4.60
2018-08-22T07:34:35.308Z,4.47
2018-08-22T07:37:03.106Z,5.10
2018-08-22T07:39:30.831Z,5.03
2018-08-22T07:41:58.575Z,4.70
2018-08-22T07:44:26.290Z,5.57
2018-08-22T07:46:53.983Z,5.80
2018-08-22T07:49:21.795Z,5.33
2018-08-22T07:51:49.493Z,5.70
2018-08-22T07:54:17.193Z,5.40
2018-08-22T07:56:44.981Z,5.83
2018-08-22T07:59:15.385Z,7.47
2018-08-22T08:01:43.147Z,6.43
2018-08-22T08:04:12.023Z,7.00
2018-08-22T08:06:40.019Z,7.27
2018-08-22T08:09:11.048Z,6.40
2018-08-22T08:11:38.812Z,7.67
2018-08-22T08:14:06.791Z,8.07
2018-08-22T08:16:34.727Z,7.60
2018-08-22T08:19:02.481Z,8.43
2018-08-22T08:21:30.203Z,8.33
2018-08-22T08:23:57.989Z,7.10
2018-08-22T08:26:25.772Z,8.90
2018-08-22T08:28:53.468Z,7.70
2018-08-22T08:31:21.252Z,7.33
2018-08-22T08:33:48.965Z,7.80
2018-08-22T08:36:16.782Z,7.03
2018-08-22T08:38:44.459Z,6.17
2018-08-22T08:41:12.213Z,5.97
2018-08-22T08:43:39.887Z,6.63
2018-08-22T08:46:07.643Z,5.83
2018-08-22T08:48:35.796Z,6.50
2018-08-22T08:51:03.604Z,6.13
2018-08-22T08:53:31.331Z,5.80
2018-08-22T08:55:59.304Z,5.37
2018-08-22T08:58:27.027Z,5.40
2018-08-22T09:00:54.731Z,5.90
2018-08-22T09:03:22.419Z,5.50
2018-08-22T09:05:50.120Z,5.23
2018-08-22T09:08:17.796Z,6.30
2018-08-22T09:10:45.540Z,6.00
2018-08-22T09:13:13.260Z,5.97
2018-08-22T09:15:41.539Z,5.73
2018-08-22T09:18:09.243Z,6.30
2018-08-22T09:20:37.063Z,5.47
2018-08-22T09:23:05.053Z,5.97
2018-08-22T09:25:32.748Z,5.60
2018-08-22T09:28:00.529Z,6.30
2018-08-22T09:30:28.203Z,5.43
2018-08-22T09:32:55.936Z,5.53
2018-08-22T09:35:23.648Z,5.47
2018-08-22T09:37:51.360Z,6.27
2018-08-22T09:40:19.054Z,6.03
2018-08-22T09:42:46.727Z,6.70
2018-08-22T09:45:14.419Z,6.50
2018-08-22T09:47:42.199Z,6.20
2018-08-22T09:50:09.875Z,5.60
2018-08-22T09:52:37.602Z,5.60
2018-08-22T09:55:06.341Z,6.30
2018-08-22T09:57:34.079Z,6.23
2018-08-22T10:00:01.835Z,5.30
2018-08-22T10:02:29.480Z,5.37
2018-08-22T10:04:58.232Z,6.43
2018-08-22T10:07:25.975Z,7.70
2018-08-22T10:09:53.668Z,5.70
2018-08-22T10:12:21.404Z,5.47
2018-08-22T10:14:49.123Z,5.73
2018-08-22T10:17:16.900Z,6.20
2018-08-22T10:19:44.715Z,5.97
2018-08-22T10:22:12.345Z,6.97
2018-08-22T10:24:40.080Z,7.33
2018-08-22T10:27:07.938Z,7.87
2018-08-22T10:29:35.571Z,8.10
2018-08-22T10:32:03.334Z,7.10
2018-08-22T10:34:31.146Z,7.33
2018-08-22T10:36:58.844Z,6.47
2018-08-22T10:39:26.591Z,9.27
2018-08-22T10:41:54.295Z,7.13
2018-08-22T10:44:22.041Z,7.43
2018-08-22T10:46:49.759Z,7.63
2018-08-22T10:49:17.503Z,9.20
2018-08-22T10:51:45.228Z,7.50
2018-08-22T10:54:12.899Z,7.60
2018-08-22T10:56:40.628Z,8.10
2018-08-22T10:59:08.320Z,6.80
2018-08-22T11:01:36.047Z,9.40
2018-08-22T11:04:03.748Z,7.97
2018-08-22T11:06:31.487Z,7.70
2018-08-22T11:08:59.184Z,7.70
2018-08-22T11:11:26.876Z,5.90
2018-08-22T11:13:54.647Z,7.97
2018-08-22T11:16:22.363Z,6.70
2018-08-22T11:18:50.059Z,6.50
2018-08-22T11:21:29.276Z,5.77
2018-08-22T11:24:08.235Z,7.97
2018-08-22T11:26:47.090Z,6.17
2018-08-22T11:29:26.023Z,6.77
2018-08-22T11:32:05.045Z,5.93
2018-08-22T11:34:43.616Z,6.10
2018-08-22T11:37:12.584Z,5.33
2018-08-22T11:39:41.811Z,6.30
2018-08-22T11:42:09.510Z,6.20
2018-08-22T11:44:37.215Z,6.43
2018-08-22T11:47:04.981Z,8.03
2018-08-22T11:49:32.751Z,7.73
2018-08-22T11:52:00.741Z,7.60
2018-08-22T11:54:29.299Z,6.73
2018-08-22T11:56:57.037Z,5.57
2018-08-22T11:59:24.747Z,6.97
2018-08-22T12:01:52.507Z,6.63
2018-08-22T12:04:20.601Z,6.47
2018-08-22T12:06:48.540Z,6.17
2018-08-22T12:09:16.280Z,5.73
2018-08-22T12:11:44.002Z,6.43
2018-08-22T12:14:11.753Z,6.40
2018-08-22T12:16:39.991Z,6.80
2018-08-22T12:19:08.304Z,6.70
2018-08-22T12:21:36.023Z,6.47
2018-08-22T12:24:04.007Z,7.90
2018-08-22T12:26:31.794Z,6.50
2018-08-22T12:28:59.483Z,6.53
2018-08-22T12:31:27.634Z,6.77
2018-08-22T12:33:55.339Z,8.73
2018-08-22T12:36:23.046Z,9.17
2018-08-22T12:38:50.707Z,7.47
2018-08-22T12:41:18.355Z,7.37
2018-08-22T12:43:46.231Z,6.70
2018-08-22T12:46:13.891Z,8.33
2018-08-22T12:48:41.567Z,6.70
2018-08-22T12:51:09.213Z,7.30
2018-08-22T12:53:36.920Z,6.63
2018-08-22T12:56:04.599Z,6.77
2018-08-22T12:58:32.311Z,5.87
2018-08-22T13:01:00.024Z,7.37
2018-08-22T13:03:27.731Z,7.00
2018-08-22T13:05:55.464Z,6.33
2018-08-22T13:08:23.168Z,6.27
2018-08-22T13:10:50.961Z,6.20
2018-08-22T13:13:18.668Z,5.57
2018-08-22T13:15:46.423Z,5.17
2018-08-22T13:18:14.168Z,6.13
2018-08-22T13:20:41.888Z,5.93
2018-08-22T13:23:09.648Z,5.40
2018-08-22T13:25:37.355Z,6.83
2018-08-22T13:28:05.217Z,6.17
2018-08-22T13:30:32.961Z,5.17
2018-08-22T13:33:00.699Z,6.20
2018-08-22T13:35:28.437Z,6.10
2018-08-22T13:37:56.173Z,6.50
2018-08-22T13:40:23.944Z,6.07
2018-08-22T13:42:51.676Z,7.67
2018-08-22T13:45:19.388Z,5.73
2018-08-22T13:47:47.117Z,7.80
2018-08-22T13:50:14.826Z,5.93
2018-08-22T13:52:42.661Z,5.90
2018-08-22T13:55:10.352Z,5.77
2018-08-22T13:57:38.047Z,6.67
2018-08-22T14:00:06.339Z,5.60
2018-08-22T14:02:34.042Z,7.10
2018-08-22T14:05:01.783Z,7.20
2018-08-22T14:07:29.507Z,6.80
2018-08-22T14:09:57.247Z,6.50
2018-08-22T14:12:24.984Z,7.23
2018-08-22T14:14:52.696Z,6.20
2018-08-22T14:17:20.452Z,6.93
2018-08-22T14:19:48.331Z,6.90
2018-08-22T14:22:16.077Z,7.00
2018-08-22T14:24:43.771Z,5.50
2018-08-22T14:27:11.487Z,5.90
2018-08-22T14:29:39.223Z,6.43
2018-08-22T14:32:07.169Z,5.10
2018-08-22T14:34:35.127Z,6.83
2018-08-22T14:37:02.902Z,7.47
2018-08-22T14:39:30.632Z,6.83
2018-08-22T14:41:58.394Z,7.10
2018-08-22T14:44:26.096Z,6.63
2018-08-22T14:46:53.827Z,6.83
2018-08-22T14:49:21.567Z,7.00
2018-08-22T14:51:49.292Z,6.80
2018-08-22T14:54:17.045Z,6.33
2018-08-22T14:56:44.760Z,7.00
2018-08-22T14:59:12.472Z,8.07
2018-08-22T15:01:40.193Z,7.80
2018-08-22T15:04:07.939Z,7.40
2018-08-22T15:06:35.660Z,6.37
2018-08-22T15:09:21.407Z,7.37
2018-08-22T15:11:49.594Z,7.20
2018-08-22T15:14:17.353Z,8.27
2018-08-22T15:16:45.108Z,8.30
2018-08-22T15:19:12.973Z,7.40
2018-08-22T15:21:40.700Z,7.43
2018-08-22T15:24:08.420Z,8.57
2018-08-22T15:26:36.250Z,7.80
2018-08-22T15:29:04.087Z,7.67
2018-08-22T15:31:31.823Z,7.40
2018-08-22T15:33:59.516Z,8.10
2018-08-22T15:36:28.162Z,9.27
2018-08-22T15:38:55.775Z,9.07
2018-08-22T15:41:23.528Z,10.50
2018-08-22T15:43:51.196Z,8.50
2018-08-22T15:46:18.859Z,7.43
2018-08-22T15:48:46.538Z,9.47
2018-08-22T15:51:14.226Z,9.20
2018-08-22T15:53:41.931Z,8.77
2018-08-22T15:56:09.613Z,9.60
2018-08-22T15:58:37.394Z,9.37
2018-08-22T16:01:05.284Z,10.00
2018-08-22T16:03:32.963Z,10.10
2018-08-22T16:06:00.667Z,11.17
2018-08-22T16:08:28.891Z,9.30
2018-08-22T16:10:56.562Z,10.20
2018-08-22T16:13:27.812Z,10.60
2018-08-22T16:15:56.390Z,11.27
2018-08-22T16:18:24.120Z,10.30
2018-08-22T16:20:56.942Z,10.67
2018-08-22T16:23:25.659Z,10.80
2018-08-22T16:25:54.301Z,10.83
2018-08-22T16:28:22.656Z,12.70
2018-08-22T16:30:57.041Z,11.57
2018-08-22T16:33:19.894Z,11.67
2018-08-22T16:35:47.663Z,13.97
2018-08-22T16:38:15.468Z,11.97
2018-08-22T16:40:46.912Z,10.23
2018-08-22T16:43:25.400Z,12.47
2018-08-22T16:45:54.918Z,14.57
2018-08-22T16:48:22.572Z,12.60
2018-08-22T16:50:51.228Z,12.87
2018-08-22T16:53:18.941Z,12.17
2018-08-22T16:55:47.448Z,11.27
2018-08-22T16:58:15.687Z,13.50
2018-08-22T17:00:44.638Z,14.77
2018-08-22T17:03:12.303Z,12.50
2018-08-22T17:05:40.067Z,13.47
2018-08-22T17:08:07.751Z,14.77
2018-08-22T17:10:49.456Z,12.27
2018-08-22T17:13:27.828Z,12.37
2018-08-22T17:15:56.027Z,12.97
2018-08-22T17:18:23.828Z,10.90
2018-08-22T17:20:51.623Z,14.03
2018-08-22T17:23:19.419Z,12.87
2018-08-22T17:25:47.035Z,12.90
2018-08-22T17:28:16.775Z,13.93
2018-08-22T17:30:44.669Z,14.10
2018-08-22T17:33:12.554Z,13.17
2018-08-22T17:35:43.359Z,12.53
2018-08-22T17:38:12.023Z,13.40
2018-08-22T17:40:40.631Z,13.00
2018-08-22T17:43:08.580Z,12.20
2018-08-22T17:45:37.788Z,10.70
2018-08-22T17:48:05.975Z,13.47
2018-08-22T17:50:33.652Z,11.00
2018-08-22T17:53:06.046Z,12.43
2018-08-22T17:55:33.752Z,12.00
2018-08-22T17:58:01.439Z,11.30
2018-08-22T18:00:32.048Z,13.93
2018-08-22T18:02:59.747Z,15.17
2018-08-22T18:05:28.995Z,43.40
2018-08-22T18:07:56.931Z,11.70
2018-08-22T18:10:24.653Z,11.10
2018-08-22T18:12:52.550Z,10.30
2018-08-22T18:15:20.232Z,11.40
2018-08-22T18:17:48.166Z,12.47
2018-08-22T18:20:15.937Z,10.37
2018-08-22T18:22:43.660Z,11.50
2018-08-22T18:25:11.353Z,12.07
2018-08-22T18:27:39.061Z,11.47
2018-08-22T18:30:09.865Z,11.23
2018-08-22T18:32:37.567Z,12.10
2018-08-22T18:35:08.973Z,11.90
2018-08-22T18:37:36.955Z,11.67
2018-08-22T18:40:26.155Z,10.83
2018-08-22T18:42:55.150Z,11.87
2018-08-22T18:45:23.557Z,11.70
2018-08-22T18:47:51.228Z,11.70
2018-08-22T18:50:19.322Z,10.70
2018-08-22T18:52:50.133Z,10.90
2018-08-22T18:55:19.715Z,9.67
2018-08-22T18:57:47.403Z,9.50
2018-08-22T19:00:15.154Z,9.70
2018-08-22T19:02:42.904Z,9.80
2018-08-22T19:05:18.783Z,9.27
2018-08-22T19:07:56.803Z,9.87
2018-08-22T19:10:26.530Z,9.43
2018-08-22T19:13:27.451Z,8.80
2018-08-22T19:15:57.168Z,8.83
2018-08-22T19:18:24.980Z,8.37
2018-08-22T19:20:54.413Z,10.10
2018-08-22T19:23:22.285Z,12.87
2018-08-22T19:25:50.862Z,9.73
2018-08-22T19:28:18.582Z,10.67
2018-08-22T19:30:46.487Z,10.27
2018-08-22T19:33:15.510Z,13.87
2018-08-22T19:35:43.958Z,10.10
2018-08-22T19:38:13.725Z,10.37
2018-08-22T19:40:41.519Z,9.87
2018-08-22T19:43:09.262Z,15.53
2018-08-22T19:45:37.008Z,19.77
2018-08-22T19:48:05.002Z,10.70
2018-08-22T19:50:32.744Z,12.43
2018-08-22T19:53:00.520Z,10.10
2018-08-22T19:55:28.670Z,11.17
2018-08-22T19:57:56.401Z,10.20
2018-08-22T20:00:24.172Z,9.97
2018-08-22T20:02:51.911Z,12.57
2018-08-22T20:05:19.667Z,10.83
2018-08-22T20:07:47.428Z,9.43
2018-08-22T20:10:17.068Z,12.00
2018-08-22T20:12:50.612Z,10.77
2018-08-22T20:15:18.359Z,11.27
2018-08-22T20:17:50.566Z,10.90
2018-08-22T20:20:18.930Z,12.60
2018-08-22T20:22:49.941Z,13.10
2018-08-22T20:25:17.662Z,16.60
2018-08-22T20:27:45.418Z,13.20
2018-08-22T20:30:18.327Z,12.87
2018-08-22T20:33:00.458Z,15.63
2018-08-22T20:35:31.299Z,12.97
2018-08-22T20:38:00.323Z,14.40
2018-08-22T20:40:28.255Z,13.07
2018-08-22T20:42:56.093Z,11.97
2018-08-22T20:45:29.452Z,14.70
2018-08-22T20:48:02.856Z,15.63
2018-08-22T20:50:30.582Z,14.37
2018-08-22T20:53:00.084Z,16.97
2018-08-22T20:55:28.095Z,16.10
2018-08-22T20:57:56.281Z,18.07
2018-08-22T21:00:24.939Z,20.77
2018-08-22T21:02:53.835Z,17.33
2018-08-22T21:05:21.687Z,18.33
2018-08-22T21:07:49.435Z,19.40
2018-08-22T21:10:17.964Z,19.20
2018-08-22T21:12:47.066Z,19.90
2018-08-22T21:15:14.815Z,22.30
2018-08-22T21:17:42.591Z,27.07
2018-08-22T21:20:25.955Z,22.27
2018-08-22T21:22:55.291Z,22.23
2018-08-22T21:25:23.035Z,27.67
2018-08-22T21:27:51.231Z,24.10
2018-08-22T21:30:19.014Z,24.60
2018-08-22T21:32:47.694Z,26.30
2018-08-22T21:35:19.509Z,24.23
2018-08-22T21:37:47.287Z,23.30
2018-08-22T21:40:15.056Z,24.87
2018-08-22T21:42:43.163Z,23.13
2018-08-22T21:45:11.096Z,23.53
2018-08-22T21:47:38.859Z,25.57
2018-08-22T21:50:06.650Z,25.73
2018-08-22T21:52:51.499Z,25.00
2018-08-22T21:55:23.807Z,23.77
2018-08-22T21:57:51.609Z,24.50
2018-08-22T22:00:19.497Z,24.40
2018-08-22T22:02:47.259Z,23.00
2018-08-22T22:05:15.059Z,21.87
2018-08-22T22:07:42.839Z,25.00
2018-08-22T22:10:11.291Z,25.50
2018-08-22T22:12:39.587Z,23.23
2018-08-22T22:15:12.853Z,23.67
2018-08-22T22:17:41.332Z,23.13
2018-08-22T22:20:09.043Z,23.87
2018-08-22T22:22:36.775Z,22.63
2018-08-22T22:25:05.563Z,27.13
2018-08-22T22:27:33.307Z,24.60
2018-08-22T22:30:03.851Z,22.60
2018-08-22T22:32:32.303Z,22.83
2018-08-22T22:35:00.160Z,22.30
2018-08-22T22:37:27.895Z,25.10
2018-08-22T22:39:55.635Z,26.87
2018-08-22T22:42:27.272Z,23.93
2018-08-22T22:44:56.491Z,23.03
2018-08-22T22:47:27.009Z,22.70
2018-08-22T22:49:55.176Z,23.17
2018-08-22T22:52:27.104Z,24.20
2018-08-22T22:54:55.939Z,24.43
2018-08-22T22:57:23.924Z,24.60
2018-08-22T22:59:52.163Z,23.57
2018-08-22T23:02:22.706Z,22.47
2018-08-22T23:04:51.396Z,25.60
2018-08-22T23:07:21.553Z,24.73
2018-08-22T23:09:52.490Z,25.20
2018-08-22T23:12:25.959Z,23.70
2018-08-22T23:14:54.792Z,23.70
2018-08-22T23:17:22.535Z,24.60
2018-08-22T23:20:00.498Z,26.67
2018-08-22T23:22:28.209Z,23.63
2018-08-22T23:24:55.945Z,24.40
2018-08-22T23:27:23.698Z,25.63
2018-08-22T23:29:51.395Z,22.13
2018-08-22T23:32:19.137Z,25.70
2018-08-22T23:34:46.834Z,22.80
2018-08-22T23:37:14.587Z,24.03
2018-08-22T23:39:42.327Z,22.40
2018-08-22T23:42:10.101Z,25.40
2018-08-22T23:44:42.266Z,26.00
2018-08-22T23:47:10.000Z,25.70
2018-08-22T23:49:42.220Z,24.90
2018-08-22T23:52:10.579Z,25.17
2018-08-22T23:54:43.019Z,26.83
2018-08-22T23:57:10.820Z,25.20
2018-08-22T23:59:38.523Z,23.80
